Time;durP1;ratioP1;P1;durP2;ratioP2;P2;SDS_P1;SDS_P2;PMS_P1;PMS_P2;Temp;Humidity;BMP_temperature;BMP_pressure;BME280_temperature;BME280_humidity;BME280_pressure;Samples;Min_cycle;Max_cycle;Signal;HPM_P1;HPM_P2
2023/05/10 00:01:29;;;;;;;;;;;13.50;99.90;;;;;;4897306;29;20018;-75
2023/05/10 00:03:54;;;;;;;;;;;13.50;99.90;;;;;;4895434;29;19986;-76
2023/05/10 00:06:20;;;;;;;;;;;13.40;99.90;;;;;;4897191;29;19928;-76
2023/05/10 00:08:46;;;;;;;;;;;13.50;99.90;;;;;;4896209;29;19928;-77
2023/05/10 00:11:11;;;;;;;;;;;13.40;99.90;;;;;;4912240;29;19928;-78
2023/05/10 00:13:37;;;;;;;;;;;13.40;99.90;;;;;;4908416;29;19986;-74
2023/05/10 00:16:02;;;;;;;;;;;13.40;99.90;;;;;;4931771;29;19955;-74
2023/05/10 00:18:28;;;;;;;;;;;13.40;99.90;;;;;;4920800;29;19986;-76
2023/05/10 00:20:53;;;;;;;;;;;13.40;99.90;;;;;;4899401;29;19934;-77
2023/05/10 00:23:19;;;;;;;;;;;13.30;99.90;;;;;;4916040;29;19934;-78
2023/05/10 00:25:45;;;;;;;;;;;13.30;99.90;;;;;;4900784;29;19970;-76
2023/05/10 00:28:10;;;;;;;;;;;13.20;99.90;;;;;;4899835;29;19927;-78
2023/05/10 00:30:36;;;;;;;;;;;13.30;99.90;;;;;;4916642;29;19982;-78
2023/05/10 00:33:02;;;;;;;;;;;13.20;99.90;;;;;;4900814;29;20105;-77
2023/05/10 00:35:28;;;;;;;;;;;13.20;99.90;;;;;;4915762;29;19927;-76
2023/05/10 00:37:53;;;;;;;;;;;13.30;99.90;;;;;;4898964;29;19955;-77
2023/05/10 00:40:19;;;;;;;;;;;13.20;99.90;;;;;;4915004;29;19927;-76
2023/05/10 00:42:44;;;;;;;;;;;13.30;99.90;;;;;;4868560;29;19938;-77
2023/05/10 00:45:11;;;;;;;;;;;13.20;99.90;;;;;;4884027;29;20271;-77
2023/05/10 00:47:37;;;;;;;;;;;13.20;99.90;;;;;;4900537;29;19928;-76
2023/05/10 00:50:04;;;;;;;;;;;13.10;99.90;;;;;;4882867;29;20110;-76
2023/05/10 00:52:30;;;;;;;;;;;13.10;99.90;;;;;;4915011;29;20219;-76
2023/05/10 00:54:56;;;;;;;;;;;13.20;99.90;;;;;;4883446;29;19935;-76
2023/05/10 00:57:23;;;;;;;;;;;13.10;99.90;;;;;;4915365;29;19931;-77
2023/05/10 00:59:49;;;;;;;;;;;13.10;99.90;;;;;;4899079;29;19943;-76
2023/05/10 01:02:15;;;;;;;;;;;13.10;99.90;;;;;;4914531;29;19928;-77
2023/05/10 01:04:40;;;;;;;;;;;13.10;99.90;;;;;;4915042;29;19928;-76
2023/05/10 01:07:06;;;;;;;;;;;13.20;99.90;;;;;;4900531;29;19930;-76
2023/05/10 01:09:32;;;;;;;;;;;13.10;99.90;;;;;;4899490;29;20033;-77
2023/05/10 01:11:58;;;;;;;;;;;13.10;99.90;;;;;;4900122;29;19928;-78
2023/05/10 01:14:24;;;;;;;;;;;13.10;99.90;;;;;;4899195;29;20070;-77
2023/05/10 01:16:50;;;;;;;;;;;13.00;99.90;;;;;;4883699;29;20082;-77
2023/05/10 01:19:21;;;;;;;;;;;13.10;99.90;;;;;;4917849;29;20386;-79
2023/05/10 01:22:01;;;;;;;;;;;13.10;99.90;;;;;;4901159;29;19928;-76
2023/05/10 01:24:36;;;;;;;;;;;13.10;99.90;;;;;;4915165;29;19927;-77
2023/05/10 01:27:02;;;;;;;;;;;13.10;99.90;;;;;;4899127;29;19935;-76
2023/05/10 01:29:29;;;;;;;;;;;13.10;99.90;;;;;;4898785;29;19928;-77
2023/05/10 01:31:54;;;;;;;;;;;13.00;99.90;;;;;;4914075;29;19928;-77
2023/05/10 01:34:23;;;;;;;;;;;13.00;99.90;;;;;;4914137;29;19935;-78
2023/05/10 01:37:02;;;;;;;;;;;13.00;99.90;;;;;;4900827;29;19928;-77
2023/05/10 01:39:57;;;;;;;;;;;12.90;99.90;;;;;;4893399;29;19952;-76
2023/05/10 01:42:28;;;;;;;;;;;13.00;99.90;;;;;;4898515;29;19927;-75
2023/05/10 01:45:04;;;;;;;;;;;13.00;99.90;;;;;;4905730;29;19937;-76
2023/05/10 01:47:41;;;;;;;;;;;13.00;99.90;;;;;;4902908;29;19927;-74
2023/05/10 01:50:10;;;;;;;;;;;13.00;99.90;;;;;;4902992;29;19960;-77
2023/05/10 01:52:38;;;;;;;;;;;13.00;99.90;;;;;;4885717;29;20018;-75
2023/05/10 01:55:09;;;;;;;;;;;13.00;99.90;;;;;;4900221;29;20034;-78
2023/05/10 01:57:35;;;;;;;;;;;13.00;99.90;;;;;;4899943;29;19982;-79
2023/05/10 02:00:03;;;;;;;;;;;12.90;99.90;;;;;;4899689;29;19935;-77
2023/05/10 02:02:29;;;;;;;;;;;13.00;99.90;;;;;;4898293;29;19935;-78
2023/05/10 02:04:56;;;;;;;;;;;12.90;99.90;;;;;;4899327;29;19967;-72
2023/05/10 02:07:23;;;;;;;;;;;12.90;99.90;;;;;;4899650;29;20018;-77
2023/05/10 02:09:49;;;;;;;;;;;12.90;99.90;;;;;;4900496;29;19927;-77
2023/05/10 02:12:15;;;;;;;;;;;12.90;99.90;;;;;;4898468;29;19959;-77
2023/05/10 02:14:42;;;;;;;;;;;12.90;99.90;;;;;;4898769;29;19928;-77
2023/05/10 02:17:08;;;;;;;;;;;12.90;99.90;;;;;;4897963;29;19977;-77
2023/05/10 02:19:35;;;;;;;;;;;12.90;99.90;;;;;;4898253;29;20289;-78
2023/05/10 02:22:02;;;;;;;;;;;12.90;99.90;;;;;;4882823;29;19927;-77
2023/05/10 02:24:28;;;;;;;;;;;12.90;99.90;;;;;;4913637;29;19927;-77
2023/05/10 02:26:54;;;;;;;;;;;12.90;99.90;;;;;;4882191;29;20286;-77
2023/05/10 02:29:20;;;;;;;;;;;12.80;99.90;;;;;;4898366;29;19923;-77
2023/05/10 02:31:46;;;;;;;;;;;12.90;99.90;;;;;;4897638;29;19938;-78
2023/05/10 02:34:12;;;;;;;;;;;12.80;99.90;;;;;;4898373;29;19927;-77
2023/05/10 02:36:38;;;;;;;;;;;12.80;99.90;;;;;;4898114;29;19928;-77
2023/05/10 02:39:04;;;;;;;;;;;12.80;99.90;;;;;;4897954;29;19935;-78
2023/05/10 02:41:32;;;;;;;;;;;12.80;99.90;;;;;;4897313;29;20382;-77
2023/05/10 02:44:00;;;;;;;;;;;12.80;99.90;;;;;;4897519;29;19934;-79
2023/05/10 02:46:25;;;;;;;;;;;12.80;99.90;;;;;;4897524;29;19978;-78
2023/05/10 02:48:51;;;;;;;;;;;12.80;99.90;;;;;;4898656;29;20383;-78
2023/05/10 02:51:17;;;;;;;;;;;12.70;99.90;;;;;;4898137;29;19931;-77
2023/05/10 02:53:44;;;;;;;;;;;12.70;99.90;;;;;;4897391;29;20022;-77
2023/05/10 02:56:19;;;;;;;;;;;12.80;99.90;;;;;;4913206;29;19950;-78
2023/05/10 02:58:46;;;;;;;;;;;12.80;99.90;;;;;;4897406;29;19938;-79
2023/05/10 03:01:11;;;;;;;;;;;12.80;99.90;;;;;;4899576;29;19927;-79
2023/05/10 03:03:37;;;;;;;;;;;12.70;99.90;;;;;;4924954;29;20018;-78
2023/05/10 03:06:03;;;;;;;;;;;12.70;99.90;;;;;;4903702;29;19931;-74
2023/05/10 03:08:31;;;;;;;;;;;12.70;99.90;;;;;;4914169;29;19928;-78
2023/05/10 03:11:03;;;;;;;;;;;12.70;99.90;;;;;;4897134;29;19935;-77
2023/05/10 03:13:36;;;;;;;;;;;12.60;99.90;;;;;;4912508;29;19927;-78
2023/05/10 03:16:09;;;;;;;;;;;12.70;99.90;;;;;;4912804;29;19935;-77
2023/05/10 03:19:04;;;;;;;;;;;12.60;99.90;;;;;;4897119;29;20026;-78
2023/05/10 03:21:31;;;;;;;;;;;12.70;99.90;;;;;;4888588;29;19959;-78
2023/05/10 03:24:04;;;;;;;;;;;12.60;99.90;;;;;;4897337;29;20030;-77
2023/05/10 03:26:30;;;;;;;;;;;12.60;99.90;;;;;;4882377;29;19928;-79
2023/05/10 03:28:58;;;;;;;;;;;12.70;99.90;;;;;;4913494;29;19928;-78
2023/05/10 03:31:24;;;;;;;;;;;12.60;99.90;;;;;;4901993;29;20022;-78
2023/05/10 03:33:50;;;;;;;;;;;12.70;99.90;;;;;;4901654;29;19967;-78
2023/05/10 03:36:16;;;;;;;;;;;12.70;99.90;;;;;;4900726;29;19927;-80
2023/05/10 03:38:42;;;;;;;;;;;12.70;99.90;;;;;;4897627;29;19928;-77
2023/05/10 03:41:07;;;;;;;;;;;12.60;99.90;;;;;;4898734;29;19978;-77
2023/05/10 03:43:33;;;;;;;;;;;12.60;99.90;;;;;;4883636;29;20231;-81
2023/05/10 03:46:01;;;;;;;;;;;12.70;99.90;;;;;;4868742;29;19927;-82
2023/05/10 03:48:26;;;;;;;;;;;12.70;99.90;;;;;;4898523;29;19934;-81
2023/05/10 03:50:52;;;;;;;;;;;12.60;99.90;;;;;;4899283;29;19928;-79
2023/05/10 03:53:17;;;;;;;;;;;12.70;99.90;;;;;;4901138;29;19973;-79
2023/05/10 03:55:43;;;;;;;;;;;12.70;99.90;;;;;;4901442;29;20255;-76
2023/05/10 03:58:12;;;;;;;;;;;12.60;99.90;;;;;;4901619;29;19928;-80
2023/05/10 04:00:43;;;;;;;;;;;12.60;99.90;;;;;;4885892;29;19935;-76
2023/05/10 04:03:12;;;;;;;;;;;12.70;99.90;;;;;;4900585;29;20361;-79
2023/05/10 04:05:37;;;;;;;;;;;12.60;99.90;;;;;;4901773;29;20023;-78
2023/05/10 04:08:03;;;;;;;;;;;12.60;99.90;;;;;;4901160;29;19958;-79
2023/05/10 04:10:29;;;;;;;;;;;12.70;99.90;;;;;;4899028;29;19959;-80
2023/05/10 04:12:55;;;;;;;;;;;12.70;99.90;;;;;;4899688;29;19932;-79
2023/05/10 04:15:20;;;;;;;;;;;12.60;99.90;;;;;;4884537;29;19934;-79
2023/05/10 04:17:46;;;;;;;;;;;12.60;99.90;;;;;;4900867;29;20330;-80
2023/05/10 04:20:12;;;;;;;;;;;12.50;99.90;;;;;;4901630;29;20353;-76
2023/05/10 04:22:38;;;;;;;;;;;12.60;99.90;;;;;;4899079;29;20019;-80
2023/05/10 04:25:04;;;;;;;;;;;12.60;99.90;;;;;;4900295;29;19934;-81
2023/05/10 04:27:30;;;;;;;;;;;12.50;99.90;;;;;;4915783;29;19927;-77
2023/05/10 04:29:56;;;;;;;;;;;12.50;99.90;;;;;;4916418;29;19946;-79
2023/05/10 04:32:22;;;;;;;;;;;12.50;99.90;;;;;;4905852;29;19927;-80
2023/05/10 04:34:47;;;;;;;;;;;12.50;99.90;;;;;;4905549;29;19928;-81
2023/05/10 04:37:13;;;;;;;;;;;12.50;99.90;;;;;;4905457;29;19983;-79
2023/05/10 04:39:38;;;;;;;;;;;12.40;99.90;;;;;;4902785;29;19928;-79
2023/05/10 04:42:05;;;;;;;;;;;12.40;99.90;;;;;;4917226;29;19935;-79
2023/05/10 04:44:31;;;;;;;;;;;12.40;99.90;;;;;;4899527;29;20306;-79
2023/05/10 04:46:57;;;;;;;;;;;12.40;99.90;;;;;;4900273;29;20298;-78
2023/05/10 04:49:23;;;;;;;;;;;12.40;99.90;;;;;;4884525;29;19932;-79
2023/05/10 04:51:48;;;;;;;;;;;12.40;99.90;;;;;;4899848;29;19947;-78
2023/05/10 04:54:14;;;;;;;;;;;12.40;99.90;;;;;;4884255;29;19928;-78
2023/05/10 04:56:40;;;;;;;;;;;12.40;99.90;;;;;;4900214;29;20462;-79
2023/05/10 04:59:06;;;;;;;;;;;12.40;99.90;;;;;;4915165;29;19998;-79
2023/05/10 05:01:32;;;;;;;;;;;12.40;99.90;;;;;;4882486;29;19927;-79
2023/05/10 05:03:57;;;;;;;;;;;12.30;99.90;;;;;;4900418;29;19983;-78
2023/05/10 05:06:24;;;;;;;;;;;12.40;99.90;;;;;;4867837;29;19932;-75
2023/05/10 05:08:50;;;;;;;;;;;12.40;99.90;;;;;;4914899;29;19935;-79
2023/05/10 05:11:16;;;;;;;;;;;12.30;99.90;;;;;;4916347;29;19928;-78
2023/05/10 05:13:41;;;;;;;;;;;12.40;99.90;;;;;;4882741;29;20486;-77
2023/05/10 05:16:07;;;;;;;;;;;12.40;99.90;;;;;;4898952;29;19928;-78
2023/05/10 05:18:33;;;;;;;;;;;12.40;99.90;;;;;;4899438;29;19967;-78
2023/05/10 05:20:58;;;;;;;;;;;12.40;99.90;;;;;;4898743;29;19938;-77
2023/05/10 05:23:24;;;;;;;;;;;12.40;99.90;;;;;;4898152;29;19986;-75
2023/05/10 05:25:53;;;;;;;;;;;12.50;99.90;;;;;;4898866;29;20070;-77
2023/05/10 05:28:21;;;;;;;;;;;12.40;99.90;;;;;;4899007;29;19927;-78
2023/05/10 05:30:47;;;;;;;;;;;12.40;99.90;;;;;;4899241;29;19931;-78
2023/05/10 05:33:13;;;;;;;;;;;12.40;99.90;;;;;;4898715;29;19982;-77
2023/05/10 05:35:38;;;;;;;;;;;12.50;99.90;;;;;;4882583;29;19935;-78
2023/05/10 05:38:05;;;;;;;;;;;12.50;99.90;;;;;;4899315;29;20132;-78
2023/05/10 05:40:30;;;;;;;;;;;12.50;99.90;;;;;;4913888;29;19934;-77
2023/05/10 05:42:56;;;;;;;;;;;12.40;99.90;;;;;;4898087;29;20374;-77
2023/05/10 05:45:21;;;;;;;;;;;12.50;99.90;;;;;;4883258;29;19950;-77
2023/05/10 05:47:47;;;;;;;;;;;12.50;99.90;;;;;;4885837;29;19924;-77
2023/05/10 05:50:13;;;;;;;;;;;12.50;99.90;;;;;;4886501;29;19989;-77
2023/05/10 05:52:38;;;;;;;;;;;12.60;99.90;;;;;;4922095;29;19927;-77
2023/05/10 05:55:04;;;;;;;;;;;12.50;99.90;;;;;;4885131;29;20018;-78
2023/05/10 05:57:30;;;;;;;;;;;12.60;99.90;;;;;;4866851;29;19928;-76
2023/05/10 05:59:55;;;;;;;;;;;12.60;99.90;;;;;;4882169;29;20022;-79
2023/05/10 06:02:21;;;;;;;;;;;12.60;99.90;;;;;;4881951;29;19944;-78
2023/05/10 06:04:47;;;;;;;;;;;12.60;99.90;;;;;;4866290;29;20546;-81
2023/05/10 06:07:12;;;;;;;;;;;12.60;99.90;;;;;;4897791;29;20314;-78
2023/05/10 06:09:38;;;;;;;;;;;12.60;99.90;;;;;;4896849;29;20362;-75
2023/05/10 06:12:03;;;;;;;;;;;12.70;99.90;;;;;;4913084;29;20010;-79
2023/05/10 06:14:29;;;;;;;;;;;12.60;99.90;;;;;;4913033;29;19927;-79
2023/05/10 06:16:55;;;;;;;;;;;12.60;99.90;;;;;;4898632;29;19986;-79
2023/05/10 06:19:20;;;;;;;;;;;12.60;99.90;;;;;;4882338;29;19978;-76
2023/05/10 06:21:46;;;;;;;;;;;12.60;99.90;;;;;;4897134;29;19928;-80
2023/05/10 06:24:11;;;;;;;;;;;12.60;99.90;;;;;;4866726;29;19928;-80
2023/05/10 06:26:37;;;;;;;;;;;12.50;99.90;;;;;;4881849;29;19966;-80
2023/05/10 06:29:02;;;;;;;;;;;12.30;99.90;;;;;;4897990;29;19931;-80
2023/05/10 06:31:28;;;;;;;;;;;12.40;99.90;;;;;;4866822;29;20327;-80
2023/05/10 06:33:54;;;;;;;;;;;12.40;99.90;;;;;;4913063;29;19923;-80
2023/05/10 06:36:19;;;;;;;;;;;12.40;99.90;;;;;;4882309;29;19935;-80
2023/05/10 06:38:45;;;;;;;;;;;12.50;99.90;;;;;;4913339;29;19931;-81
2023/05/10 06:41:11;;;;;;;;;;;12.40;99.90;;;;;;4866509;29;19971;-80
2023/05/10 06:43:39;;;;;;;;;;;12.40;99.90;;;;;;4881422;29;19946;-78
2023/05/10 06:46:05;;;;;;;;;;;12.40;99.90;;;;;;4882294;29;19938;-78
2023/05/10 06:48:30;;;;;;;;;;;12.40;99.90;;;;;;4883825;29;19927;-79
2023/05/10 06:50:56;;;;;;;;;;;12.30;99.90;;;;;;4921478;29;20001;-81
2023/05/10 06:53:22;;;;;;;;;;;12.30;99.90;;;;;;4888694;29;19928;-80
2023/05/10 06:55:48;;;;;;;;;;;12.30;99.90;;;;;;4882404;29;19934;-81
2023/05/10 06:58:14;;;;;;;;;;;12.40;99.90;;;;;;4897691;29;19927;-80
2023/05/10 07:00:42;;;;;;;;;;;12.30;99.90;;;;;;4896780;29;20018;-72
2023/05/10 07:03:08;;;;;;;;;;;12.30;99.90;;;;;;4880704;29;19931;-75
2023/05/10 07:05:33;;;;;;;;;;;12.30;99.90;;;;;;4911797;29;20330;-74
2023/05/10 07:07:59;;;;;;;;;;;12.30;99.90;;;;;;4880418;29;19987;-75
2023/05/10 07:10:25;;;;;;;;;;;12.30;99.90;;;;;;4896046;29;20300;-74
2023/05/10 07:12:51;;;;;;;;;;;12.30;99.90;;;;;;4893600;29;20006;-74
2023/05/10 07:15:16;;;;;;;;;;;12.30;99.90;;;;;;4912367;29;19928;-72
2023/05/10 07:17:42;;;;;;;;;;;12.30;99.90;;;;;;4897908;29;20045;-71
2023/05/10 07:20:08;;;;;;;;;;;12.30;99.90;;;;;;4896875;29;19982;-77
2023/05/10 07:22:33;;;;;;;;;;;12.20;99.90;;;;;;4912304;29;19935;-75
2023/05/10 07:24:59;;;;;;;;;;;12.30;99.90;;;;;;4896980;29;19983;-73
2023/05/10 07:27:25;;;;;;;;;;;12.30;99.90;;;;;;4912053;29;20293;-77
2023/05/10 07:29:50;;;;;;;;;;;12.30;99.90;;;;;;4895992;29;19927;-74
2023/05/10 07:32:16;;;;;;;;;;;12.40;99.90;;;;;;4880667;29;19927;-80
2023/05/10 07:34:42;;;;;;;;;;;12.40;99.90;;;;;;4880901;29;19951;-73
2023/05/10 07:37:07;;;;;;;;;;;12.40;99.90;;;;;;4912116;29;19979;-77
2023/05/10 07:39:33;;;;;;;;;;;12.50;99.90;;;;;;4897598;29;19974;-78
2023/05/10 07:41:58;;;;;;;;;;;12.50;99.90;;;;;;4910984;29;20022;-78
2023/05/10 07:44:24;;;;;;;;;;;12.60;99.90;;;;;;4896606;29;20018;-74
2023/05/10 07:46:49;;;;;;;;;;;12.50;99.90;;;;;;4910349;29;20373;-76
2023/05/10 07:49:15;;;;;;;;;;;12.60;99.90;;;;;;4895059;29;19934;-79
2023/05/10 07:51:42;;;;;;;;;;;12.60;99.90;;;;;;4896629;29;19927;-81
2023/05/10 07:54:08;;;;;;;;;;;12.70;99.90;;;;;;4880502;29;20014;-77
2023/05/10 07:56:34;;;;;;;;;;;12.70;99.90;;;;;;4895678;29;20031;-75
2023/05/10 07:59:00;;;;;;;;;;;12.70;99.90;;;;;;4912478;29;19932;-72
2023/05/10 08:01:26;;;;;;;;;;;12.80;99.90;;;;;;4898850;29;19987;-77
2023/05/10 08:03:53;;;;;;;;;;;12.80;99.90;;;;;;4896455;29;19934;-76
2023/05/10 08:06:19;;;;;;;;;;;12.80;99.90;;;;;;4897689;29;19934;-79
2023/05/10 08:08:50;;;;;;;;;;;12.80;99.90;;;;;;4880478;29;20036;-76
2023/05/10 08:11:20;;;;;;;;;;;12.70;99.90;;;;;;4892958;29;19938;-78
2023/05/10 08:13:46;;;;;;;;;;;12.80;99.90;;;;;;4893234;29;19932;-72
2023/05/10 08:16:11;;;;;;;;;;;12.80;99.90;;;;;;4893572;29;19928;-77
2023/05/10 08:18:37;;;;;;;;;;;12.70;99.90;;;;;;4890736;29;20022;-77
2023/05/10 08:21:03;;;;;;;;;;;12.70;99.90;;;;;;4895097;29;19947;-77
2023/05/10 08:23:28;;;;;;;;;;;12.70;99.90;;;;;;4896293;29;19999;-76
2023/05/10 08:25:54;;;;;;;;;;;12.70;99.90;;;;;;4898098;29;19928;-76
2023/05/10 08:28:19;;;;;;;;;;;12.70;99.90;;;;;;4881581;29;20345;-76
2023/05/10 08:30:45;;;;;;;;;;;12.80;99.90;;;;;;4907379;29;19974;-75
2023/05/10 08:33:11;;;;;;;;;;;12.70;99.90;;;;;;4889902;29;20022;-73
2023/05/10 08:35:36;;;;;;;;;;;12.80;99.90;;;;;;4911256;29;19928;-75
2023/05/10 08:38:02;;;;;;;;;;;12.70;99.90;;;;;;4911823;29;20023;-75
2023/05/10 08:40:27;;;;;;;;;;;12.70;99.90;;;;;;4913137;29;19928;-75
2023/05/10 08:42:58;;;;;;;;;;;12.80;99.90;;;;;;4918793;29;19927;-77
2023/05/10 08:45:24;;;;;;;;;;;12.80;99.90;;;;;;4905949;29;19928;-76
2023/05/10 08:47:51;;;;;;;;;;;12.80;99.90;;;;;;4895606;29;20023;-71
2023/05/10 08:50:19;;;;;;;;;;;12.80;99.90;;;;;;4895377;29;19950;-73
2023/05/10 08:52:47;;;;;;;;;;;12.90;99.90;;;;;;4897952;29;19987;-73
2023/05/10 08:55:13;;;;;;;;;;;12.80;99.90;;;;;;4896130;29;19928;-69
2023/05/10 08:57:39;;;;;;;;;;;12.80;99.90;;;;;;4913565;29;20278;-75
2023/05/10 09:00:05;;;;;;;;;;;12.90;99.90;;;;;;4895816;29;19928;-75
2023/05/10 09:02:31;;;;;;;;;;;12.90;99.90;;;;;;4897678;29;20322;-73
2023/05/10 09:04:56;;;;;;;;;;;12.80;99.90;;;;;;4911304;29;20010;-73
2023/05/10 09:07:22;;;;;;;;;;;12.90;99.90;;;;;;4899143;29;19927;-75
2023/05/10 09:09:48;;;;;;;;;;;12.90;99.90;;;;;;4910012;29;19932;-75
2023/05/10 09:12:15;;;;;;;;;;;12.90;99.90;;;;;;4897187;29;19932;-74
2023/05/10 09:14:41;;;;;;;;;;;12.80;99.90;;;;;;4913068;29;19975;-75
2023/05/10 09:17:07;;;;;;;;;;;12.90;99.90;;;;;;4896720;29;19927;-75
2023/05/10 09:19:33;;;;;;;;;;;13.00;99.90;;;;;;4897426;29;19975;-73
2023/05/10 09:22:00;;;;;;;;;;;13.10;99.90;;;;;;4897822;29;19983;-71
2023/05/10 09:24:26;;;;;;;;;;;13.10;99.90;;;;;;4866440;29;19966;-74
2023/05/10 09:26:52;;;;;;;;;;;13.10;99.90;;;;;;4897437;29;19927;-73
2023/05/10 09:29:18;;;;;;;;;;;13.20;99.90;;;;;;4896849;29;19935;-74
2023/05/10 09:31:46;;;;;;;;;;;13.30;99.90;;;;;;4897309;29;20376;-74
2023/05/10 09:34:15;;;;;;;;;;;13.40;99.90;;;;;;4881902;29;19931;-75
2023/05/10 09:36:57;;;;;;;;;;;13.40;99.90;;;;;;4896730;29;19928;-75
2023/05/10 09:39:33;;;;;;;;;;;13.50;99.90;;;;;;4897386;29;19931;-75
2023/05/10 09:42:00;;;;;;;;;;;13.60;99.90;;;;;;4893842;29;20401;-74
2023/05/10 09:44:26;;;;;;;;;;;13.60;99.90;;;;;;4881657;29;19979;-76
2023/05/10 09:46:52;;;;;;;;;;;13.70;99.90;;;;;;4896846;29;19927;-75
2023/05/10 09:49:19;;;;;;;;;;;13.70;99.90;;;;;;4896593;29;19978;-73
2023/05/10 09:51:45;;;;;;;;;;;13.60;99.90;;;;;;4895702;29;20373;-75
2023/05/10 09:54:10;;;;;;;;;;;13.70;99.90;;;;;;4912290;29;19938;-76
2023/05/10 09:56:38;;;;;;;;;;;13.70;99.90;;;;;;4910565;29;19928;-75
2023/05/10 09:59:05;;;;;;;;;;;13.80;99.90;;;;;;4896980;29;19927;-75
2023/05/10 10:01:30;;;;;;;;;;;13.80;99.90;;;;;;4897565;29;19935;-73
2023/05/10 10:03:57;;;;;;;;;;;13.70;99.90;;;;;;4896514;29;19927;-72
2023/05/10 10:06:24;;;;;;;;;;;13.70;99.90;;;;;;4900693;29;19960;-76
2023/05/10 10:08:50;;;;;;;;;;;13.70;99.90;;;;;;4901891;29;19928;-74
2023/05/10 10:11:15;;;;;;;;;;;13.70;99.90;;;;;;4877278;29;19950;-77
2023/05/10 10:13:41;;;;;;;;;;;13.80;99.90;;;;;;4898844;29;20352;-74
2023/05/10 10:16:08;;;;;;;;;;;13.90;99.90;;;;;;4895955;29;19995;-73
2023/05/10 10:18:33;;;;;;;;;;;14.00;99.90;;;;;;4897089;29;20359;-72
2023/05/10 10:20:59;;;;;;;;;;;14.10;99.90;;;;;;4881314;29;19931;-72
2023/05/10 10:23:25;;;;;;;;;;;14.20;99.90;;;;;;4895213;29;19953;-73
2023/05/10 10:25:52;;;;;;;;;;;14.30;99.90;;;;;;4895797;29;19927;-75
2023/05/10 10:28:26;;;;;;;;;;;14.40;99.90;;;;;;4898568;29;19923;-76
2023/05/10 10:30:53;;;;;;;;;;;14.40;99.90;;;;;;4899206;29;20506;-74
2023/05/10 10:33:22;;;;;;;;;;;14.50;99.90;;;;;;4880956;29;19924;-75
2023/05/10 10:35:47;;;;;;;;;;;14.60;99.90;;;;;;4912937;29;19931;-76
2023/05/10 10:38:13;;;;;;;;;;;14.60;99.90;;;;;;4898012;29;19931;-75
2023/05/10 10:40:39;;;;;;;;;;;14.70;99.90;;;;;;4908550;29;20488;-75
2023/05/10 10:43:23;;;;;;;;;;;14.70;99.90;;;;;;4896707;29;20027;-74
2023/05/10 10:46:08;;;;;;;;;;;14.80;99.90;;;;;;4911502;29;19935;-76
2023/05/10 10:48:33;;;;;;;;;;;14.80;99.90;;;;;;4911446;29;19934;-75
2023/05/10 10:51:00;;;;;;;;;;;14.90;99.90;;;;;;4894748;29;19928;-71
2023/05/10 10:53:26;;;;;;;;;;;14.90;99.90;;;;;;4895364;29;20103;-72
2023/05/10 10:56:02;;;;;;;;;;;15.00;99.90;;;;;;4878678;29;19927;-75
2023/05/10 10:58:34;;;;;;;;;;;15.00;99.90;;;;;;4881529;29;19927;-74
2023/05/10 11:01:10;;;;;;;;;;;15.00;99.90;;;;;;4896587;29;19927;-74
2023/05/10 11:03:36;;;;;;;;;;;15.00;99.90;;;;;;4879032;29;19927;-77
2023/05/10 11:06:02;;;;;;;;;;;15.10;99.90;;;;;;4896633;29;19934;-75
2023/05/10 11:08:29;;;;;;;;;;;15.10;99.90;;;;;;4880322;29;19927;-71
2023/05/10 11:11:02;;;;;;;;;;;15.00;99.90;;;;;;4896430;29;19937;-75
2023/05/10 11:13:31;;;;;;;;;;;15.00;99.90;;;;;;4909359;29;19927;-74
2023/05/10 11:15:58;;;;;;;;;;;15.00;99.90;;;;;;4893805;29;19928;-75
2023/05/10 11:18:28;;;;;;;;;;;15.00;99.90;;;;;;4909980;29;19928;-76
2023/05/10 11:20:59;;;;;;;;;;;15.00;99.90;;;;;;4894975;29;19927;-75
2023/05/10 11:23:29;;;;;;;;;;;15.00;99.90;;;;;;4896016;29;19936;-75
2023/05/10 11:25:55;;;;;;;;;;;15.10;99.90;;;;;;4896385;29;19990;-71
2023/05/10 11:28:20;;;;;;;;;;;15.10;99.90;;;;;;4897303;29;19974;-74
2023/05/10 11:30:46;;;;;;;;;;;15.10;99.90;;;;;;4898816;29;19927;-73
2023/05/10 11:33:16;;;;;;;;;;;15.20;99.90;;;;;;4894767;29;19935;-72
2023/05/10 11:35:42;;;;;;;;;;;15.30;99.90;;;;;;4893515;29;19928;-72
2023/05/10 11:38:09;;;;;;;;;;;15.40;99.90;;;;;;4890526;29;19935;-72
2023/05/10 11:40:35;;;;;;;;;;;15.50;99.90;;;;;;4879550;29;19995;-74
2023/05/10 11:43:01;;;;;;;;;;;15.50;99.90;;;;;;4880815;29;19928;-73
2023/05/10 11:45:28;;;;;;;;;;;15.50;99.90;;;;;;4863966;29;19978;-74
2023/05/10 11:47:54;;;;;;;;;;;15.50;99.90;;;;;;4880186;29;19927;-72
2023/05/10 11:50:20;;;;;;;;;;;15.50;99.90;;;;;;4894917;29;20052;-73
2023/05/10 11:52:50;;;;;;;;;;;15.50;99.90;;;;;;4864621;29;19969;-73
2023/05/10 11:55:15;;;;;;;;;;;15.50;99.90;;;;;;4895230;29;19931;-71
2023/05/10 11:57:43;;;;;;;;;;;15.60;99.90;;;;;;4895530;29;19934;-75
2023/05/10 12:00:09;;;;;;;;;;;15.60;99.90;;;;;;4911003;29;19927;-78
2023/05/10 12:02:35;;;;;;;;;;;15.70;99.90;;;;;;4880500;29;19939;-84
2023/05/10 12:05:01;;;;;;;;;;;15.80;99.90;;;;;;4896466;29;19927;-82
2023/05/10 12:07:26;;;;;;;;;;;15.80;99.90;;;;;;4882279;29;19934;-80
2023/05/10 12:10:14;;;;;;;;;;;15.70;99.90;;;;;;4897827;29;20021;-77
2023/05/10 12:12:42;;;;;;;;;;;15.80;99.90;;;;;;4900278;29;19928;-75
2023/05/10 12:15:12;;;;;;;;;;;15.60;99.90;;;;;;4900874;29;19928;-69
2023/05/10 12:17:39;;;;;;;;;;;15.60;99.90;;;;;;4912532;29;19974;-72
2023/05/10 12:20:15;;;;;;;;;;;15.50;99.90;;;;;;4899529;29;20104;-73
2023/05/10 12:22:43;;;;;;;;;;;15.40;99.90;;;;;;4879802;29;19927;-73
2023/05/10 12:25:09;;;;;;;;;;;15.40;99.90;;;;;;4898140;29;20378;-73
2023/05/10 12:27:35;;;;;;;;;;;15.30;99.90;;;;;;4898240;29;19949;-71
2023/05/10 12:30:02;;;;;;;;;;;15.30;99.90;;;;;;4897391;29;20030;-72
2023/05/10 12:32:43;;;;;;;;;;;15.20;99.90;;;;;;4913423;29;20272;-72
2023/05/10 12:35:09;;;;;;;;;;;15.20;99.90;;;;;;4896710;29;20022;-74
2023/05/10 12:37:38;;;;;;;;;;;15.10;99.90;;;;;;4896633;29;20103;-72
2023/05/10 12:40:09;;;;;;;;;;;15.10;99.90;;;;;;4898387;29;20300;-71
2023/05/10 12:42:35;;;;;;;;;;;15.10;99.90;;;;;;4899440;29;19975;-70
2023/05/10 12:45:02;;;;;;;;;;;15.10;99.90;;;;;;4898404;29;19927;-71
2023/05/10 12:47:28;;;;;;;;;;;15.10;99.90;;;;;;4914278;29;20641;-72
2023/05/10 12:49:53;;;;;;;;;;;15.10;99.90;;;;;;4898340;29;19970;-71
2023/05/10 12:52:19;;;;;;;;;;;15.10;99.90;;;;;;4898553;29;19950;-71
2023/05/10 12:54:45;;;;;;;;;;;15.10;99.90;;;;;;4900300;29;19931;-70
2023/05/10 12:57:10;;;;;;;;;;;15.10;99.90;;;;;;4898280;29;20357;-70
2023/05/10 12:59:36;;;;;;;;;;;15.20;99.90;;;;;;4900017;29;19974;-72
2023/05/10 13:02:02;;;;;;;;;;;15.30;99.90;;;;;;4881698;29;20326;-69
2023/05/10 13:04:27;;;;;;;;;;;15.30;99.90;;;;;;4879852;29;20356;-71
2023/05/10 13:06:58;;;;;;;;;;;15.40;99.90;;;;;;4881991;29;19928;-70
2023/05/10 13:09:24;;;;;;;;;;;15.40;99.90;;;;;;4898663;29;19927;-71
2023/05/10 13:11:50;;;;;;;;;;;15.40;99.90;;;;;;4896164;29;19934;-72
2023/05/10 13:14:16;;;;;;;;;;;15.50;99.90;;;;;;4897155;29;20006;-71
2023/05/10 13:16:42;;;;;;;;;;;15.50;99.90;;;;;;4895797;29;19927;-73
2023/05/10 13:19:07;;;;;;;;;;;15.50;99.90;;;;;;4882513;29;20266;-71
2023/05/10 13:21:33;;;;;;;;;;;15.60;99.90;;;;;;4898239;29;20454;-71
2023/05/10 13:23:59;;;;;;;;;;;15.60;99.90;;;;;;4898169;29;19927;-70
2023/05/10 13:26:25;;;;;;;;;;;15.70;99.90;;;;;;4896903;29;19986;-70
2023/05/10 13:28:51;;;;;;;;;;;15.70;99.90;;;;;;4881029;29;19927;-71
2023/05/10 13:31:17;;;;;;;;;;;15.80;99.90;;;;;;4897190;29;20362;-70
2023/05/10 13:33:42;;;;;;;;;;;15.80;99.90;;;;;;4913545;29;20019;-70
2023/05/10 13:36:08;;;;;;;;;;;15.80;99.90;;;;;;4897110;29;20396;-71
2023/05/10 13:38:34;;;;;;;;;;;15.80;99.90;;;;;;4913136;29;19927;-70
2023/05/10 13:41:00;;;;;;;;;;;15.90;99.90;;;;;;4882389;29;19983;-71
2023/05/10 13:43:25;;;;;;;;;;;15.80;99.90;;;;;;4881591;29;19932;-69
2023/05/10 13:45:52;;;;;;;;;;;15.80;99.90;;;;;;4898442;29;19928;-70
2023/05/10 13:48:17;;;;;;;;;;;15.80;99.90;;;;;;4898284;29;19934;-71
2023/05/10 13:50:43;;;;;;;;;;;15.80;99.90;;;;;;4898624;29;19928;-70
2023/05/10 13:53:08;;;;;;;;;;;15.80;99.90;;;;;;4898629;29;19927;-70
2023/05/10 13:55:34;;;;;;;;;;;15.80;99.90;;;;;;4898406;29;20066;-70
2023/05/10 13:57:59;;;;;;;;;;;15.80;99.90;;;;;;4898549;29;20133;-70
2023/05/10 14:00:25;;;;;;;;;;;15.70;99.90;;;;;;4881771;29;19927;-71
2023/05/10 14:02:51;;;;;;;;;;;15.80;99.90;;;;;;4897891;29;19935;-71
2023/05/10 14:05:16;;;;;;;;;;;15.70;99.90;;;;;;4897321;29;19934;-71
2023/05/10 14:07:42;;;;;;;;;;;15.70;99.90;;;;;;4911155;29;19981;-70
2023/05/10 14:10:08;;;;;;;;;;;15.70;99.90;;;;;;4898251;29;19928;-70
2023/05/10 14:12:33;;;;;;;;;;;15.70;99.90;;;;;;4897378;29;20646;-70
2023/05/10 14:14:59;;;;;;;;;;;15.80;99.90;;;;;;4896726;29;19935;-70